sensor_id;sensor_type;location;lat;lon;timestamp;P1;durP1;ratioP1;P2;durP2;ratioP2
64795;SDS011;51229;51.980;6.722;2022-09-29T00:01:30;11.32;;;7.93;;
64795;SDS011;51229;51.980;6.722;2022-09-29T00:03:56;13.50;;;8.85;;
64795;SDS011;51229;51.980;6.722;2022-09-29T00:06:21;12.25;;;8.52;;
64795;SDS011;51229;51.980;6.722;2022-09-29T00:08:47;12.15;;;8.20;;
64795;SDS011;51229;51.980;6.722;2022-09-29T00:11:14;12.75;;;8.15;;
64795;SDS011;51229;51.980;6.722;2022-09-29T00:13:41;11.77;;;8.93;;
64795;SDS011;51229;51.980;6.722;2022-09-29T00:16:08;10.85;;;8.18;;
64795;SDS011;51229;51.980;6.722;2022-09-29T00:18:37;13.48;;;9.00;;
64795;SDS011;51229;51.980;6.722;2022-09-29T00:21:08;11.35;;;8.27;;
64795;SDS011;51229;51.980;6.722;2022-09-29T00:23:36;11.73;;;8.33;;
64795;SDS011;51229;51.980;6.722;2022-09-29T00:26:04;12.35;;;8.93;;
64795;SDS011;51229;51.980;6.722;2022-09-29T00:28:35;13.63;;;8.75;;
64795;SDS011;51229;51.980;6.722;2022-09-29T00:31:03;13.52;;;9.18;;
64795;SDS011;51229;51.980;6.722;2022-09-29T00:33:31;13.00;;;8.77;;
64795;SDS011;51229;51.980;6.722;2022-09-29T00:35:59;12.52;;;8.40;;
64795;SDS011;51229;51.980;6.722;2022-09-29T00:38:27;12.02;;;8.68;;
64795;SDS011;51229;51.980;6.722;2022-09-29T00:40:53;12.52;;;8.27;;
64795;SDS011;51229;51.980;6.722;2022-09-29T00:43:21;13.18;;;9.13;;
64795;SDS011;51229;51.980;6.722;2022-09-29T00:45:50;11.45;;;8.60;;
64795;SDS011;51229;51.980;6.722;2022-09-29T00:48:20;11.30;;;8.65;;
64795;SDS011;51229;51.980;6.722;2022-09-29T00:50:51;12.60;;;8.20;;
64795;SDS011;51229;51.980;6.722;2022-09-29T00:53:18;12.07;;;9.00;;
64795;SDS011;51229;51.980;6.722;2022-09-29T00:58:39;12.25;;;8.75;;
64795;SDS011;51229;51.980;6.722;2022-09-29T01:01:14;12.88;;;9.07;;
64795;SDS011;51229;51.980;6.722;2022-09-29T01:03:41;11.43;;;8.48;;
64795;SDS011;51229;51.980;6.722;2022-09-29T01:06:12;12.00;;;8.52;;
64795;SDS011;51229;51.980;6.722;2022-09-29T01:11:25;13.18;;;8.50;;
64795;SDS011;51229;51.980;6.722;2022-09-29T01:13:54;13.20;;;8.43;;
64795;SDS011;51229;51.980;6.722;2022-09-29T01:16:25;13.00;;;9.07;;
64795;SDS011;51229;51.980;6.722;2022-09-29T01:18:51;13.15;;;9.63;;
64795;SDS011;51229;51.980;6.722;2022-09-29T01:21:27;12.98;;;9.02;;
64795;SDS011;51229;51.980;6.722;2022-09-29T01:27:00;9.82;;;7.43;;
64795;SDS011;51229;51.980;6.722;2022-09-29T01:32:10;13.02;;;9.63;;
64795;SDS011;51229;51.980;6.722;2022-09-29T01:37:42;13.20;;;9.60;;
64795;SDS011;51229;51.980;6.722;2022-09-29T01:40:47;12.57;;;9.63;;
64795;SDS011;51229;51.980;6.722;2022-09-29T01:43:34;11.93;;;9.10;;
64795;SDS011;51229;51.980;6.722;2022-09-29T01:46:06;12.10;;;8.85;;
64795;SDS011;51229;51.980;6.722;2022-09-29T01:48:45;13.55;;;9.38;;
64795;SDS011;51229;51.980;6.722;2022-09-29T01:51:16;15.50;;;9.68;;
64795;SDS011;51229;51.980;6.722;2022-09-29T01:53:48;11.68;;;8.95;;
64795;SDS011;51229;51.980;6.722;2022-09-29T01:56:21;13.88;;;9.55;;
64795;SDS011;51229;51.980;6.722;2022-09-29T01:59:03;13.63;;;10.07;;
64795;SDS011;51229;51.980;6.722;2022-09-29T02:01:36;12.98;;;8.95;;
64795;SDS011;51229;51.980;6.722;2022-09-29T02:04:10;13.13;;;9.50;;
64795;SDS011;51229;51.980;6.722;2022-09-29T02:06:44;11.40;;;8.85;;
64795;SDS011;51229;51.980;6.722;2022-09-29T02:09:18;13.43;;;9.60;;
64795;SDS011;51229;51.980;6.722;2022-09-29T02:11:51;11.15;;;7.82;;
64795;SDS011;51229;51.980;6.722;2022-09-29T02:14:18;14.07;;;9.63;;
64795;SDS011;51229;51.980;6.722;2022-09-29T02:17:06;13.93;;;9.93;;
64795;SDS011;51229;51.980;6.722;2022-09-29T02:19:37;14.13;;;10.07;;
64795;SDS011;51229;51.980;6.722;2022-09-29T02:22:06;14.15;;;10.35;;
64795;SDS011;51229;51.980;6.722;2022-09-29T02:24:32;13.55;;;9.98;;
64795;SDS011;51229;51.980;6.722;2022-09-29T02:26:58;15.30;;;10.25;;
64795;SDS011;51229;51.980;6.722;2022-09-29T02:29:24;16.88;;;10.52;;
64795;SDS011;51229;51.980;6.722;2022-09-29T02:31:51;12.93;;;9.50;;
64795;SDS011;51229;51.980;6.722;2022-09-29T02:34:17;16.35;;;10.30;;
64795;SDS011;51229;51.980;6.722;2022-09-29T02:42:24;14.02;;;9.52;;
64795;SDS011;51229;51.980;6.722;2022-09-29T02:59:26;13.70;;;9.50;;
64795;SDS011;51229;51.980;6.722;2022-09-29T03:02:01;13.98;;;9.45;;
64795;SDS011;51229;51.980;6.722;2022-09-29T03:04:27;13.05;;;8.85;;
64795;SDS011;51229;51.980;6.722;2022-09-29T03:06:53;12.48;;;9.85;;
64795;SDS011;51229;51.980;6.722;2022-09-29T03:09:19;13.55;;;10.13;;
64795;SDS011;51229;51.980;6.722;2022-09-29T03:11:45;14.48;;;8.68;;
64795;SDS011;51229;51.980;6.722;2022-09-29T03:14:11;14.13;;;10.30;;
64795;SDS011;51229;51.980;6.722;2022-09-29T03:16:37;14.27;;;10.18;;
64795;SDS011;51229;51.980;6.722;2022-09-29T03:19:03;15.13;;;10.45;;
64795;SDS011;51229;51.980;6.722;2022-09-29T03:21:30;14.32;;;10.18;;
64795;SDS011;51229;51.980;6.722;2022-09-29T03:23:56;16.80;;;10.38;;
64795;SDS011;51229;51.980;6.722;2022-09-29T03:26:22;15.02;;;9.90;;
64795;SDS011;51229;51.980;6.722;2022-09-29T03:28:49;13.95;;;10.25;;
64795;SDS011;51229;51.980;6.722;2022-09-29T03:31:15;13.45;;;9.95;;
64795;SDS011;51229;51.980;6.722;2022-09-29T03:33:41;16.83;;;11.35;;
64795;SDS011;51229;51.980;6.722;2022-09-29T03:36:08;15.38;;;10.30;;
64795;SDS011;51229;51.980;6.722;2022-09-29T03:38:35;15.05;;;11.10;;
64795;SDS011;51229;51.980;6.722;2022-09-29T03:41:01;13.27;;;10.27;;
64795;SDS011;51229;51.980;6.722;2022-09-29T03:43:27;12.27;;;9.18;;
64795;SDS011;51229;51.980;6.722;2022-09-29T03:45:54;14.13;;;10.18;;
64795;SDS011;51229;51.980;6.722;2022-09-29T03:48:21;11.15;;;8.45;;
64795;SDS011;51229;51.980;6.722;2022-09-29T03:50:48;14.73;;;10.50;;
64795;SDS011;51229;51.980;6.722;2022-09-29T03:53:15;14.48;;;10.40;;
64795;SDS011;51229;51.980;6.722;2022-09-29T03:55:45;15.20;;;9.05;;
64795;SDS011;51229;51.980;6.722;2022-09-29T03:58:11;13.07;;;9.48;;
64795;SDS011;51229;51.980;6.722;2022-09-29T04:00:37;14.07;;;10.50;;
64795;SDS011;51229;51.980;6.722;2022-09-29T04:03:03;14.88;;;10.30;;
64795;SDS011;51229;51.980;6.722;2022-09-29T04:05:29;14.93;;;10.15;;
64795;SDS011;51229;51.980;6.722;2022-09-29T04:07:55;14.05;;;10.40;;
64795;SDS011;51229;51.980;6.722;2022-09-29T04:10:21;14.25;;;10.05;;
64795;SDS011;51229;51.980;6.722;2022-09-29T04:12:46;14.75;;;10.15;;
64795;SDS011;51229;51.980;6.722;2022-09-29T04:15:12;14.35;;;9.73;;
64795;SDS011;51229;51.980;6.722;2022-09-29T04:17:38;13.93;;;9.38;;
64795;SDS011;51229;51.980;6.722;2022-09-29T04:20:03;13.60;;;9.60;;
64795;SDS011;51229;51.980;6.722;2022-09-29T04:22:29;12.07;;;9.25;;
64795;SDS011;51229;51.980;6.722;2022-09-29T04:24:55;13.90;;;10.15;;
64795;SDS011;51229;51.980;6.722;2022-09-29T04:27:21;15.60;;;10.70;;
64795;SDS011;51229;51.980;6.722;2022-09-29T04:29:46;15.23;;;10.13;;
64795;SDS011;51229;51.980;6.722;2022-09-29T04:32:12;14.45;;;10.48;;
64795;SDS011;51229;51.980;6.722;2022-09-29T04:34:38;12.43;;;9.18;;
64795;SDS011;51229;51.980;6.722;2022-09-29T04:37:03;14.55;;;10.40;;
64795;SDS011;51229;51.980;6.722;2022-09-29T04:39:35;13.55;;;9.05;;
64795;SDS011;51229;51.980;6.722;2022-09-29T04:42:01;14.45;;;9.82;;
64795;SDS011;51229;51.980;6.722;2022-09-29T04:44:26;14.48;;;10.02;;
64795;SDS011;51229;51.980;6.722;2022-09-29T04:46:52;14.18;;;10.02;;
64795;SDS011;51229;51.980;6.722;2022-09-29T04:49:18;14.57;;;10.60;;
64795;SDS011;51229;51.980;6.722;2022-09-29T04:51:44;13.90;;;10.27;;
64795;SDS011;51229;51.980;6.722;2022-09-29T04:54:10;13.88;;;9.52;;
64795;SDS011;51229;51.980;6.722;2022-09-29T04:56:36;12.32;;;9.15;;
64795;SDS011;51229;51.980;6.722;2022-09-29T04:59:02;14.80;;;9.23;;
64795;SDS011;51229;51.980;6.722;2022-09-29T05:01:28;13.98;;;9.70;;
64795;SDS011;51229;51.980;6.722;2022-09-29T05:03:54;13.43;;;9.27;;
64795;SDS011;51229;51.980;6.722;2022-09-29T05:06:20;13.73;;;9.20;;
64795;SDS011;51229;51.980;6.722;2022-09-29T05:08:46;12.93;;;9.10;;
64795;SDS011;51229;51.980;6.722;2022-09-29T05:11:12;13.98;;;9.57;;
64795;SDS011;51229;51.980;6.722;2022-09-29T05:13:37;15.80;;;9.20;;
64795;SDS011;51229;51.980;6.722;2022-09-29T05:16:03;13.90;;;9.63;;
64795;SDS011;51229;51.980;6.722;2022-09-29T05:18:29;13.27;;;9.23;;
64795;SDS011;51229;51.980;6.722;2022-09-29T05:20:55;13.63;;;9.57;;
64795;SDS011;51229;51.980;6.722;2022-09-29T05:23:30;16.08;;;9.88;;
64795;SDS011;51229;51.980;6.722;2022-09-29T05:25:59;13.13;;;7.68;;
64795;SDS011;51229;51.980;6.722;2022-09-29T05:28:29;14.43;;;9.32;;
64795;SDS011;51229;51.980;6.722;2022-09-29T05:30:59;12.82;;;9.02;;
64795;SDS011;51229;51.980;6.722;2022-09-29T05:33:28;12.15;;;8.60;;
64795;SDS011;51229;51.980;6.722;2022-09-29T05:35:54;15.75;;;9.77;;
64795;SDS011;51229;51.980;6.722;2022-09-29T05:38:20;13.80;;;9.40;;
64795;SDS011;51229;51.980;6.722;2022-09-29T05:40:47;13.73;;;9.65;;
64795;SDS011;51229;51.980;6.722;2022-09-29T05:43:13;11.52;;;7.72;;
64795;SDS011;51229;51.980;6.722;2022-09-29T05:45:38;14.15;;;8.65;;
64795;SDS011;51229;51.980;6.722;2022-09-29T05:48:04;13.77;;;9.05;;
64795;SDS011;51229;51.980;6.722;2022-09-29T05:50:30;14.90;;;9.23;;
64795;SDS011;51229;51.980;6.722;2022-09-29T05:53:01;14.82;;;9.57;;
64795;SDS011;51229;51.980;6.722;2022-09-29T05:55:27;12.65;;;8.50;;
64795;SDS011;51229;51.980;6.722;2022-09-29T05:57:53;12.20;;;7.85;;
64795;SDS011;51229;51.980;6.722;2022-09-29T06:00:18;14.57;;;9.02;;
64795;SDS011;51229;51.980;6.722;2022-09-29T06:02:44;15.10;;;9.55;;
64795;SDS011;51229;51.980;6.722;2022-09-29T06:05:10;13.02;;;8.85;;
64795;SDS011;51229;51.980;6.722;2022-09-29T06:07:35;15.27;;;10.27;;
64795;SDS011;51229;51.980;6.722;2022-09-29T06:10:02;15.07;;;10.10;;
64795;SDS011;51229;51.980;6.722;2022-09-29T06:12:28;13.75;;;9.45;;
64795;SDS011;51229;51.980;6.722;2022-09-29T06:14:59;15.05;;;9.13;;
64795;SDS011;51229;51.980;6.722;2022-09-29T06:17:24;14.20;;;9.18;;
64795;SDS011;51229;51.980;6.722;2022-09-29T06:19:50;14.48;;;9.20;;
64795;SDS011;51229;51.980;6.722;2022-09-29T06:22:18;14.30;;;9.20;;
64795;SDS011;51229;51.980;6.722;2022-09-29T06:24:43;12.85;;;8.38;;
64795;SDS011;51229;51.980;6.722;2022-09-29T06:27:09;16.05;;;8.60;;
64795;SDS011;51229;51.980;6.722;2022-09-29T06:29:35;13.93;;;8.82;;
64795;SDS011;51229;51.980;6.722;2022-09-29T06:32:01;13.35;;;9.32;;
64795;SDS011;51229;51.980;6.722;2022-09-29T06:34:27;13.30;;;8.00;;
64795;SDS011;51229;51.980;6.722;2022-09-29T06:36:53;15.27;;;9.65;;
64795;SDS011;51229;51.980;6.722;2022-09-29T06:39:37;15.13;;;10.32;;
64795;SDS011;51229;51.980;6.722;2022-09-29T06:42:03;15.15;;;9.55;;
64795;SDS011;51229;51.980;6.722;2022-09-29T06:44:29;16.52;;;10.55;;
64795;SDS011;51229;51.980;6.722;2022-09-29T06:46:56;15.43;;;10.32;;
64795;SDS011;51229;51.980;6.722;2022-09-29T06:49:22;15.20;;;9.20;;
64795;SDS011;51229;51.980;6.722;2022-09-29T06:51:49;18.05;;;11.50;;
64795;SDS011;51229;51.980;6.722;2022-09-29T06:54:16;13.82;;;8.90;;
64795;SDS011;51229;51.980;6.722;2022-09-29T06:56:48;15.77;;;9.35;;
64795;SDS011;51229;51.980;6.722;2022-09-29T06:59:15;22.30;;;13.07;;
64795;SDS011;51229;51.980;6.722;2022-09-29T07:01:41;25.08;;;13.35;;
64795;SDS011;51229;51.980;6.722;2022-09-29T07:04:06;22.88;;;13.82;;
64795;SDS011;51229;51.980;6.722;2022-09-29T07:06:32;23.10;;;13.80;;
64795;SDS011;51229;51.980;6.722;2022-09-29T07:08:58;23.63;;;14.98;;
64795;SDS011;51229;51.980;6.722;2022-09-29T07:11:25;28.83;;;17.55;;
64795;SDS011;51229;51.980;6.722;2022-09-29T07:13:52;30.30;;;17.23;;
64795;SDS011;51229;51.980;6.722;2022-09-29T07:16:18;24.35;;;13.68;;
64795;SDS011;51229;51.980;6.722;2022-09-29T07:18:47;26.10;;;15.60;;
64795;SDS011;51229;51.980;6.722;2022-09-29T07:21:13;26.27;;;16.08;;
64795;SDS011;51229;51.980;6.722;2022-09-29T07:23:42;26.85;;;16.58;;
64795;SDS011;51229;51.980;6.722;2022-09-29T07:26:08;20.23;;;14.18;;
64795;SDS011;51229;51.980;6.722;2022-09-29T07:28:35;22.60;;;14.35;;
64795;SDS011;51229;51.980;6.722;2022-09-29T07:31:02;21.48;;;14.55;;
64795;SDS011;51229;51.980;6.722;2022-09-29T07:33:30;21.85;;;13.55;;
64795;SDS011;51229;51.980;6.722;2022-09-29T07:35:56;20.17;;;13.30;;
64795;SDS011;51229;51.980;6.722;2022-09-29T07:38:24;19.58;;;14.07;;
64795;SDS011;51229;51.980;6.722;2022-09-29T07:40:54;20.88;;;14.32;;
64795;SDS011;51229;51.980;6.722;2022-09-29T07:43:24;21.52;;;13.73;;
64795;SDS011;51229;51.980;6.722;2022-09-29T07:45:50;22.90;;;15.18;;
64795;SDS011;51229;51.980;6.722;2022-09-29T07:48:16;17.92;;;12.27;;
64795;SDS011;51229;51.980;6.722;2022-09-29T07:50:43;18.85;;;13.65;;
64795;SDS011;51229;51.980;6.722;2022-09-29T07:53:09;23.02;;;14.60;;
64795;SDS011;51229;51.980;6.722;2022-09-29T07:55:36;22.05;;;13.90;;
64795;SDS011;51229;51.980;6.722;2022-09-29T07:58:02;18.13;;;12.82;;
64795;SDS011;51229;51.980;6.722;2022-09-29T08:00:28;21.05;;;13.45;;
64795;SDS011;51229;51.980;6.722;2022-09-29T08:03:04;19.52;;;12.02;;
64795;SDS011;51229;51.980;6.722;2022-09-29T08:05:31;19.05;;;12.88;;
64795;SDS011;51229;51.980;6.722;2022-09-29T08:07:58;17.58;;;12.18;;
64795;SDS011;51229;51.980;6.722;2022-09-29T08:10:26;21.58;;;13.20;;
64795;SDS011;51229;51.980;6.722;2022-09-29T08:12:53;18.52;;;12.60;;
64795;SDS011;51229;51.980;6.722;2022-09-29T08:15:19;14.90;;;11.52;;
64795;SDS011;51229;51.980;6.722;2022-09-29T08:17:46;18.08;;;12.50;;
64795;SDS011;51229;51.980;6.722;2022-09-29T08:20:12;15.77;;;11.27;;
64795;SDS011;51229;51.980;6.722;2022-09-29T08:22:37;17.80;;;12.57;;
64795;SDS011;51229;51.980;6.722;2022-09-29T08:25:03;16.92;;;12.15;;
64795;SDS011;51229;51.980;6.722;2022-09-29T08:27:29;16.58;;;12.30;;
64795;SDS011;51229;51.980;6.722;2022-09-29T08:29:54;15.27;;;11.23;;
64795;SDS011;51229;51.980;6.722;2022-09-29T08:32:21;16.73;;;11.30;;
64795;SDS011;51229;51.980;6.722;2022-09-29T08:34:47;17.48;;;12.52;;
64795;SDS011;51229;51.980;6.722;2022-09-29T08:37:13;14.40;;;10.32;;
64795;SDS011;51229;51.980;6.722;2022-09-29T08:39:38;15.52;;;11.23;;
64795;SDS011;51229;51.980;6.722;2022-09-29T08:42:07;16.38;;;11.18;;
64795;SDS011;51229;51.980;6.722;2022-09-29T08:44:51;15.02;;;9.70;;
64795;SDS011;51229;51.980;6.722;2022-09-29T08:52:30;13.45;;;9.68;;
64795;SDS011;51229;51.980;6.722;2022-09-29T08:57:43;14.52;;;10.80;;
64795;SDS011;51229;51.980;6.722;2022-09-29T09:00:11;16.52;;;10.20;;
64795;SDS011;51229;51.980;6.722;2022-09-29T09:10:30;17.27;;;10.43;;
64795;SDS011;51229;51.980;6.722;2022-09-29T09:13:23;12.40;;;8.85;;
64795;SDS011;51229;51.980;6.722;2022-09-29T09:16:19;12.05;;;7.43;;
64795;SDS011;51229;51.980;6.722;2022-09-29T09:19:02;12.50;;;9.25;;
64795;SDS011;51229;51.980;6.722;2022-09-29T09:21:50;15.15;;;9.35;;
64795;SDS011;51229;51.980;6.722;2022-09-29T09:27:15;11.63;;;8.63;;
64795;SDS011;51229;51.980;6.722;2022-09-29T09:29:48;10.88;;;8.55;;
64795;SDS011;51229;51.980;6.722;2022-09-29T09:32:20;12.50;;;7.93;;
64795;SDS011;51229;51.980;6.722;2022-09-29T09:35:07;9.02;;;6.78;;
64795;SDS011;51229;51.980;6.722;2022-09-29T09:37:48;10.38;;;6.95;;
64795;SDS011;51229;51.980;6.722;2022-09-29T09:42:51;9.95;;;7.18;;
64795;SDS011;51229;51.980;6.722;2022-09-29T09:45:34;11.38;;;7.57;;
64795;SDS011;51229;51.980;6.722;2022-09-29T09:48:20;11.15;;;7.18;;
64795;SDS011;51229;51.980;6.722;2022-09-29T09:51:16;9.75;;;7.22;;
64795;SDS011;51229;51.980;6.722;2022-09-29T09:53:46;9.48;;;7.32;;
64795;SDS011;51229;51.980;6.722;2022-09-29T09:56:35;8.60;;;5.80;;
64795;SDS011;51229;51.980;6.722;2022-09-29T10:02:10;10.93;;;7.50;;
64795;SDS011;51229;51.980;6.722;2022-09-29T10:04:45;10.75;;;7.55;;
64795;SDS011;51229;51.980;6.722;2022-09-29T10:07:13;9.18;;;6.82;;
64795;SDS011;51229;51.980;6.722;2022-09-29T10:09:40;9.55;;;7.30;;
64795;SDS011;51229;51.980;6.722;2022-09-29T10:12:07;10.07;;;7.38;;
64795;SDS011;51229;51.980;6.722;2022-09-29T10:17:47;9.70;;;7.35;;
64795;SDS011;51229;51.980;6.722;2022-09-29T10:20:34;11.20;;;7.95;;
64795;SDS011;51229;51.980;6.722;2022-09-29T10:26:05;9.50;;;7.40;;
64795;SDS011;51229;51.980;6.722;2022-09-29T10:28:38;9.18;;;7.68;;
64795;SDS011;51229;51.980;6.722;2022-09-29T10:31:16;8.77;;;7.82;;
64795;SDS011;51229;51.980;6.722;2022-09-29T10:33:51;10.63;;;7.30;;
64795;SDS011;51229;51.980;6.722;2022-09-29T10:36:28;9.32;;;7.45;;
64795;SDS011;51229;51.980;6.722;2022-09-29T10:38:57;8.82;;;6.05;;
64795;SDS011;51229;51.980;6.722;2022-09-29T10:41:23;7.97;;;6.25;;
64795;SDS011;51229;51.980;6.722;2022-09-29T10:43:49;10.00;;;6.35;;
64795;SDS011;51229;51.980;6.722;2022-09-29T10:49:06;8.27;;;5.53;;
64795;SDS011;51229;51.980;6.722;2022-09-29T10:51:35;7.90;;;5.80;;
64795;SDS011;51229;51.980;6.722;2022-09-29T10:54:07;6.07;;;5.00;;
64795;SDS011;51229;51.980;6.722;2022-09-29T10:56:35;8.07;;;5.50;;
64795;SDS011;51229;51.980;6.722;2022-09-29T10:59:01;7.45;;;5.80;;
64795;SDS011;51229;51.980;6.722;2022-09-29T11:01:29;6.70;;;4.88;;
64795;SDS011;51229;51.980;6.722;2022-09-29T11:06:33;6.93;;;4.78;;
64795;SDS011;51229;51.980;6.722;2022-09-29T11:09:04;8.50;;;5.70;;
64795;SDS011;51229;51.980;6.722;2022-09-29T11:11:35;7.13;;;4.80;;
64795;SDS011;51229;51.980;6.722;2022-09-29T11:14:03;8.32;;;5.40;;
64795;SDS011;51229;51.980;6.722;2022-09-29T11:16:33;7.40;;;4.97;;
64795;SDS011;51229;51.980;6.722;2022-09-29T11:19:11;8.17;;;5.43;;
64795;SDS011;51229;51.980;6.722;2022-09-29T11:26:59;9.23;;;5.60;;
64795;SDS011;51229;51.980;6.722;2022-09-29T11:34:54;6.43;;;5.10;;
64795;SDS011;51229;51.980;6.722;2022-09-29T11:37:41;7.68;;;5.18;;
64795;SDS011;51229;51.980;6.722;2022-09-29T11:40:38;7.45;;;5.13;;
64795;SDS011;51229;51.980;6.722;2022-09-29T11:49:15;6.97;;;4.70;;
64795;SDS011;51229;51.980;6.722;2022-09-29T11:52:00;7.57;;;4.55;;
64795;SDS011;51229;51.980;6.722;2022-09-29T11:54:53;6.50;;;4.90;;
64795;SDS011;51229;51.980;6.722;2022-09-29T12:00:16;5.43;;;4.68;;
64795;SDS011;51229;51.980;6.722;2022-09-29T12:05:21;7.15;;;4.60;;
64795;SDS011;51229;51.980;6.722;2022-09-29T12:10:57;5.60;;;4.10;;
64795;SDS011;51229;51.980;6.722;2022-09-29T12:13:50;7.22;;;4.97;;
64795;SDS011;51229;51.980;6.722;2022-09-29T12:16:30;7.15;;;4.78;;
64795;SDS011;51229;51.980;6.722;2022-09-29T12:19:13;5.85;;;4.47;;
64795;SDS011;51229;51.980;6.722;2022-09-29T12:21:43;6.97;;;4.53;;
64795;SDS011;51229;51.980;6.722;2022-09-29T12:24:34;6.65;;;4.20;;
64795;SDS011;51229;51.980;6.722;2022-09-29T12:27:13;5.95;;;4.65;;
64795;SDS011;51229;51.980;6.722;2022-09-29T12:29:44;5.20;;;4.30;;
64795;SDS011;51229;51.980;6.722;2022-09-29T12:32:17;6.30;;;3.80;;
64795;SDS011;51229;51.980;6.722;2022-09-29T12:34:54;4.78;;;3.63;;
64795;SDS011;51229;51.980;6.722;2022-09-29T12:37:29;5.70;;;3.38;;
64795;SDS011;51229;51.980;6.722;2022-09-29T12:42:47;5.22;;;3.35;;
64795;SDS011;51229;51.980;6.722;2022-09-29T12:48:14;7.00;;;3.85;;
64795;SDS011;51229;51.980;6.722;2022-09-29T12:51:00;5.00;;;3.72;;
64795;SDS011;51229;51.980;6.722;2022-09-29T12:53:53;5.60;;;3.50;;
64795;SDS011;51229;51.980;6.722;2022-09-29T12:56:38;3.63;;;2.85;;
64795;SDS011;51229;51.980;6.722;2022-09-29T13:01:37;4.25;;;2.80;;
64795;SDS011;51229;51.980;6.722;2022-09-29T13:21:17;3.90;;;3.00;;
64795;SDS011;51229;51.980;6.722;2022-09-29T13:29:14;4.22;;;3.28;;
64795;SDS011;51229;51.980;6.722;2022-09-29T13:31:44;4.15;;;3.03;;
64795;SDS011;51229;51.980;6.722;2022-09-29T13:34:18;5.43;;;3.25;;
64795;SDS011;51229;51.980;6.722;2022-09-29T13:36:52;5.15;;;3.33;;
64795;SDS011;51229;51.980;6.722;2022-09-29T13:39:29;4.90;;;3.08;;
64795;SDS011;51229;51.980;6.722;2022-09-29T13:41:55;3.95;;;3.25;;
64795;SDS011;51229;51.980;6.722;2022-09-29T13:44:30;4.53;;;2.88;;
64795;SDS011;51229;51.980;6.722;2022-09-29T13:47:09;3.50;;;2.40;;
64795;SDS011;51229;51.980;6.722;2022-09-29T13:49:59;5.45;;;2.70;;
64795;SDS011;51229;51.980;6.722;2022-09-29T13:52:45;3.35;;;2.40;;
64795;SDS011;51229;51.980;6.722;2022-09-29T13:58:24;4.80;;;2.38;;
64795;SDS011;51229;51.980;6.722;2022-09-29T14:01:03;3.92;;;2.65;;
64795;SDS011;51229;51.980;6.722;2022-09-29T14:03:37;4.32;;;2.40;;
64795;SDS011;51229;51.980;6.722;2022-09-29T14:06:05;4.82;;;2.30;;
64795;SDS011;51229;51.980;6.722;2022-09-29T14:08:47;4.25;;;2.50;;
64795;SDS011;51229;51.980;6.722;2022-09-29T14:11:28;5.07;;;2.60;;
64795;SDS011;51229;51.980;6.722;2022-09-29T14:14:02;3.58;;;2.50;;
64795;SDS011;51229;51.980;6.722;2022-09-29T14:16:46;4.10;;;2.75;;
64795;SDS011;51229;51.980;6.722;2022-09-29T14:19:38;3.70;;;2.55;;
64795;SDS011;51229;51.980;6.722;2022-09-29T14:27:41;4.75;;;2.55;;
64795;SDS011;51229;51.980;6.722;2022-09-29T14:30:16;3.70;;;2.50;;
64795;SDS011;51229;51.980;6.722;2022-09-29T14:40:37;4.13;;;2.38;;
64795;SDS011;51229;51.980;6.722;2022-09-29T14:43:03;4.65;;;2.50;;
64795;SDS011;51229;51.980;6.722;2022-09-29T14:45:35;4.82;;;2.30;;
64795;SDS011;51229;51.980;6.722;2022-09-29T14:55:14;3.85;;;2.67;;
64795;SDS011;51229;51.980;6.722;2022-09-29T15:03:52;5.22;;;3.08;;
64795;SDS011;51229;51.980;6.722;2022-09-29T15:06:25;4.38;;;2.80;;
64795;SDS011;51229;51.980;6.722;2022-09-29T15:09:10;5.00;;;3.35;;
64795;SDS011;51229;51.980;6.722;2022-09-29T15:14:17;5.95;;;2.92;;
64795;SDS011;51229;51.980;6.722;2022-09-29T15:19:34;4.00;;;2.65;;
64795;SDS011;51229;51.980;6.722;2022-09-29T15:27:18;3.97;;;2.33;;
64795;SDS011;51229;51.980;6.722;2022-09-29T15:29:45;5.13;;;2.38;;
64795;SDS011;51229;51.980;6.722;2022-09-29T15:32:20;4.30;;;2.00;;
64795;SDS011;51229;51.980;6.722;2022-09-29T15:34:47;4.07;;;1.98;;
64795;SDS011;51229;51.980;6.722;2022-09-29T15:37:14;4.38;;;2.10;;
64795;SDS011;51229;51.980;6.722;2022-09-29T15:39:43;3.70;;;1.90;;
64795;SDS011;51229;51.980;6.722;2022-09-29T15:42:16;3.45;;;2.15;;
64795;SDS011;51229;51.980;6.722;2022-09-29T15:45:08;4.15;;;2.25;;
64795;SDS011;51229;51.980;6.722;2022-09-29T15:47:40;3.63;;;2.10;;
64795;SDS011;51229;51.980;6.722;2022-09-29T15:50:21;5.22;;;2.40;;
64795;SDS011;51229;51.980;6.722;2022-09-29T15:52:49;4.55;;;2.15;;
64795;SDS011;51229;51.980;6.722;2022-09-29T15:55:16;5.03;;;2.78;;
64795;SDS011;51229;51.980;6.722;2022-09-29T16:05:39;3.97;;;2.20;;
64795;SDS011;51229;51.980;6.722;2022-09-29T16:13:16;4.43;;;2.15;;
64795;SDS011;51229;51.980;6.722;2022-09-29T16:15:46;5.32;;;2.33;;
64795;SDS011;51229;51.980;6.722;2022-09-29T16:18:21;3.97;;;2.40;;
64795;SDS011;51229;51.980;6.722;2022-09-29T16:20:49;3.85;;;2.40;;
64795;SDS011;51229;51.980;6.722;2022-09-29T16:23:21;4.80;;;2.40;;
64795;SDS011;51229;51.980;6.722;2022-09-29T16:28:39;4.35;;;3.17;;
64795;SDS011;51229;51.980;6.722;2022-09-29T16:31:23;5.53;;;3.05;;
64795;SDS011;51229;51.980;6.722;2022-09-29T16:33:52;4.30;;;2.78;;
64795;SDS011;51229;51.980;6.722;2022-09-29T16:36:24;6.35;;;3.22;;
64795;SDS011;51229;51.980;6.722;2022-09-29T16:38:51;5.10;;;2.70;;
64795;SDS011;51229;51.980;6.722;2022-09-29T16:41:20;4.72;;;3.13;;
64795;SDS011;51229;51.980;6.722;2022-09-29T16:43:51;4.53;;;3.10;;
64795;SDS011;51229;51.980;6.722;2022-09-29T16:46:48;5.43;;;2.90;;
64795;SDS011;51229;51.980;6.722;2022-09-29T16:49:37;3.90;;;2.65;;
64795;SDS011;51229;51.980;6.722;2022-09-29T16:52:11;4.45;;;2.42;;
64795;SDS011;51229;51.980;6.722;2022-09-29T16:54:41;3.78;;;2.65;;
64795;SDS011;51229;51.980;6.722;2022-09-29T16:57:29;5.00;;;2.45;;
64795;SDS011;51229;51.980;6.722;2022-09-29T17:00:05;4.95;;;2.88;;
64795;SDS011;51229;51.980;6.722;2022-09-29T17:02:35;4.40;;;2.60;;
64795;SDS011;51229;51.980;6.722;2022-09-29T17:05:01;5.93;;;2.85;;
64795;SDS011;51229;51.980;6.722;2022-09-29T17:07:29;5.28;;;2.88;;
64795;SDS011;51229;51.980;6.722;2022-09-29T17:09:55;5.13;;;2.80;;
64795;SDS011;51229;51.980;6.722;2022-09-29T17:12:23;4.85;;;2.80;;
64795;SDS011;51229;51.980;6.722;2022-09-29T17:14:51;4.53;;;2.83;;
64795;SDS011;51229;51.980;6.722;2022-09-29T17:17:24;5.47;;;3.10;;
64795;SDS011;51229;51.980;6.722;2022-09-29T17:19:52;6.20;;;3.70;;
64795;SDS011;51229;51.980;6.722;2022-09-29T17:27:20;8.10;;;4.60;;
64795;SDS011;51229;51.980;6.722;2022-09-29T17:30:05;6.95;;;4.40;;
64795;SDS011;51229;51.980;6.722;2022-09-29T17:32:31;6.90;;;3.97;;
64795;SDS011;51229;51.980;6.722;2022-09-29T17:34:57;7.32;;;3.63;;
64795;SDS011;51229;51.980;6.722;2022-09-29T17:37:23;5.47;;;3.78;;
64795;SDS011;51229;51.980;6.722;2022-09-29T17:39:49;7.75;;;4.10;;
64795;SDS011;51229;51.980;6.722;2022-09-29T17:42:14;7.30;;;4.13;;
64795;SDS011;51229;51.980;6.722;2022-09-29T17:44:41;6.22;;;4.30;;
64795;SDS011;51229;51.980;6.722;2022-09-29T17:47:15;7.03;;;5.20;;
64795;SDS011;51229;51.980;6.722;2022-09-29T17:49:41;9.80;;;4.80;;
64795;SDS011;51229;51.980;6.722;2022-09-29T17:52:08;7.80;;;4.82;;
64795;SDS011;51229;51.980;6.722;2022-09-29T17:54:36;7.78;;;5.25;;
64795;SDS011;51229;51.980;6.722;2022-09-29T17:57:03;7.68;;;4.95;;
64795;SDS011;51229;51.980;6.722;2022-09-29T17:59:29;9.15;;;5.18;;
64795;SDS011;51229;51.980;6.722;2022-09-29T18:02:07;8.98;;;5.47;;
64795;SDS011;51229;51.980;6.722;2022-09-29T18:04:37;8.30;;;5.13;;